sensor_id;sensor_type;location;lat;lon;timestamp;temperature;humidity
48648;DHT22;34437;-33.956;151.076;2023-05-07T00:00:01;16.50;61.30
48648;DHT22;34437;-33.956;151.076;2023-05-07T00:02:24;16.50;61.30
48648;DHT22;34437;-33.956;151.076;2023-05-07T00:04:47;16.50;61.30
48648;DHT22;34437;-33.956;151.076;2023-05-07T00:07:09;16.50;61.30
48648;DHT22;34437;-33.956;151.076;2023-05-07T00:09:32;16.50;61.30
48648;DHT22;34437;-33.956;151.076;2023-05-07T00:11:54;16.50;61.90
48648;DHT22;34437;-33.956;151.076;2023-05-07T00:14:17;16.50;61.30
48648;DHT22;34437;-33.956;151.076;2023-05-07T00:16:39;16.50;61.30
48648;DHT22;34437;-33.956;151.076;2023-05-07T00:19:01;16.40;61.20
48648;DHT22;34437;-33.956;151.076;2023-05-07T00:21:24;16.40;61.20
48648;DHT22;34437;-33.956;151.076;2023-05-07T00:23:48;16.40;61.00
48648;DHT22;34437;-33.956;151.076;2023-05-07T00:26:10;16.40;61.20
48648;DHT22;34437;-33.956;151.076;2023-05-07T00:28:33;16.40;61.30
48648;DHT22;34437;-33.956;151.076;2023-05-07T00:30:55;16.40;61.30
48648;DHT22;34437;-33.956;151.076;2023-05-07T00:33:18;16.40;61.30
48648;DHT22;34437;-33.956;151.076;2023-05-07T00:35:42;16.40;61.30
48648;DHT22;34437;-33.956;151.076;2023-05-07T00:38:05;16.40;61.30
48648;DHT22;34437;-33.956;151.076;2023-05-07T00:40:27;16.30;61.30
48648;DHT22;34437;-33.956;151.076;2023-05-07T00:42:51;16.30;61.30
48648;DHT22;34437;-33.956;151.076;2023-05-07T00:45:18;16.30;61.30
48648;DHT22;34437;-33.956;151.076;2023-05-07T00:47:41;16.30;61.30
48648;DHT22;34437;-33.956;151.076;2023-05-07T00:50:04;16.30;61.30
48648;DHT22;34437;-33.956;151.076;2023-05-07T00:52:27;16.30;61.30
48648;DHT22;34437;-33.956;151.076;2023-05-07T00:54:51;16.30;61.30
48648;DHT22;34437;-33.956;151.076;2023-05-07T00:57:14;16.30;61.30
48648;DHT22;34437;-33.956;151.076;2023-05-07T00:59:38;16.30;61.30
48648;DHT22;34437;-33.956;151.076;2023-05-07T01:02:01;16.30;61.30
48648;DHT22;34437;-33.956;151.076;2023-05-07T01:04:23;16.30;61.30
48648;DHT22;34437;-33.956;151.076;2023-05-07T01:06:46;16.30;61.30
48648;DHT22;34437;-33.956;151.076;2023-05-07T01:09:09;16.20;61.20
48648;DHT22;34437;-33.956;151.076;2023-05-07T01:11:31;16.20;61.20
48648;DHT22;34437;-33.956;151.076;2023-05-07T01:13:54;16.20;61.20
48648;DHT22;34437;-33.956;151.076;2023-05-07T01:16:17;16.30;61.30
48648;DHT22;34437;-33.956;151.076;2023-05-07T01:18:39;16.30;61.20
48648;DHT22;34437;-33.956;151.076;2023-05-07T01:21:04;16.30;61.20
48648;DHT22;34437;-33.956;151.076;2023-05-07T01:23:28;16.20;61.20
48648;DHT22;34437;-33.956;151.076;2023-05-07T01:25:54;16.20;61.20
48648;DHT22;34437;-33.956;151.076;2023-05-07T01:28:17;16.20;61.20
48648;DHT22;34437;-33.956;151.076;2023-05-07T01:30:45;16.20;61.10
48648;DHT22;34437;-33.956;151.076;2023-05-07T01:33:12;16.20;61.10
48648;DHT22;34437;-33.956;151.076;2023-05-07T01:35:38;16.20;61.10
48648;DHT22;34437;-33.956;151.076;2023-05-07T01:38:03;16.20;61.10
48648;DHT22;34437;-33.956;151.076;2023-05-07T01:40:27;16.20;61.10
48648;DHT22;34437;-33.956;151.076;2023-05-07T01:42:50;16.20;61.20
48648;DHT22;34437;-33.956;151.076;2023-05-07T01:45:13;16.20;61.20
48648;DHT22;34437;-33.956;151.076;2023-05-07T01:47:37;16.20;61.20
48648;DHT22;34437;-33.956;151.076;2023-05-07T01:49:59;16.20;61.20
48648;DHT22;34437;-33.956;151.076;2023-05-07T01:52:22;16.20;61.20
48648;DHT22;34437;-33.956;151.076;2023-05-07T01:54:46;16.20;61.20
48648;DHT22;34437;-33.956;151.076;2023-05-07T01:57:08;16.20;61.20
48648;DHT22;34437;-33.956;151.076;2023-05-07T01:59:31;16.20;61.20
48648;DHT22;34437;-33.956;151.076;2023-05-07T02:01:54;16.20;61.00
48648;DHT22;34437;-33.956;151.076;2023-05-07T02:04:16;16.20;61.00
48648;DHT22;34437;-33.956;151.076;2023-05-07T02:06:38;16.20;61.00
48648;DHT22;34437;-33.956;151.076;2023-05-07T02:09:01;16.20;61.00
48648;DHT22;34437;-33.956;151.076;2023-05-07T02:11:23;16.20;61.00
48648;DHT22;34437;-33.956;151.076;2023-05-07T02:13:46;16.30;61.20
48648;DHT22;34437;-33.956;151.076;2023-05-07T02:16:09;16.30;61.20
48648;DHT22;34437;-33.956;151.076;2023-05-07T02:18:32;16.30;61.20
48648;DHT22;34437;-33.956;151.076;2023-05-07T02:20:55;16.30;61.20
48648;DHT22;34437;-33.956;151.076;2023-05-07T02:23:17;16.30;61.30
48648;DHT22;34437;-33.956;151.076;2023-05-07T02:25:40;16.30;61.50
48648;DHT22;34437;-33.956;151.076;2023-05-07T02:28:02;16.30;61.50
48648;DHT22;34437;-33.956;151.076;2023-05-07T02:30:25;16.30;61.50
48648;DHT22;34437;-33.956;151.076;2023-05-07T02:32:47;16.30;61.70
48648;DHT22;34437;-33.956;151.076;2023-05-07T02:35:10;16.40;62.30
48648;DHT22;34437;-33.956;151.076;2023-05-07T02:37:32;16.30;62.10
48648;DHT22;34437;-33.956;151.076;2023-05-07T02:39:55;16.40;62.30
48648;DHT22;34437;-33.956;151.076;2023-05-07T02:42:17;16.40;62.20
48648;DHT22;34437;-33.956;151.076;2023-05-07T02:44:40;16.40;62.70
48648;DHT22;34437;-33.956;151.076;2023-05-07T02:47:02;16.40;62.70
48648;DHT22;34437;-33.956;151.076;2023-05-07T02:49:25;16.30;63.20
48648;DHT22;34437;-33.956;151.076;2023-05-07T02:51:47;16.40;63.00
48648;DHT22;34437;-33.956;151.076;2023-05-07T02:54:09;16.30;63.00
48648;DHT22;34437;-33.956;151.076;2023-05-07T02:56:32;16.40;62.80
48648;DHT22;34437;-33.956;151.076;2023-05-07T02:58:54;16.40;62.60
48648;DHT22;34437;-33.956;151.076;2023-05-07T03:01:17;16.30;62.80
48648;DHT22;34437;-33.956;151.076;2023-05-07T03:03:39;16.30;62.50
48648;DHT22;34437;-33.956;151.076;2023-05-07T03:06:02;16.30;62.40
48648;DHT22;34437;-33.956;151.076;2023-05-07T03:08:25;16.30;63.00
48648;DHT22;34437;-33.956;151.076;2023-05-07T03:10:47;16.30;63.00
48648;DHT22;34437;-33.956;151.076;2023-05-07T03:13:10;16.30;62.30
48648;DHT22;34437;-33.956;151.076;2023-05-07T03:15:32;16.30;62.30
48648;DHT22;34437;-33.956;151.076;2023-05-07T03:17:55;16.30;62.30
48648;DHT22;34437;-33.956;151.076;2023-05-07T03:20:17;16.30;62.30
48648;DHT22;34437;-33.956;151.076;2023-05-07T03:22:40;16.30;62.30
48648;DHT22;34437;-33.956;151.076;2023-05-07T03:25:02;16.20;62.30
48648;DHT22;34437;-33.956;151.076;2023-05-07T03:27:26;16.30;62.30
48648;DHT22;34437;-33.956;151.076;2023-05-07T03:29:48;16.20;62.20
48648;DHT22;34437;-33.956;151.076;2023-05-07T03:32:11;16.30;62.30
48648;DHT22;34437;-33.956;151.076;2023-05-07T03:34:33;16.30;62.00
48648;DHT22;34437;-33.956;151.076;2023-05-07T03:36:56;16.30;61.80
48648;DHT22;34437;-33.956;151.076;2023-05-07T03:39:18;16.40;62.30
48648;DHT22;34437;-33.956;151.076;2023-05-07T03:41:41;16.40;61.60
48648;DHT22;34437;-33.956;151.076;2023-05-07T03:44:03;16.50;61.50
48648;DHT22;34437;-33.956;151.076;2023-05-07T03:46:26;16.50;61.50
48648;DHT22;34437;-33.956;151.076;2023-05-07T03:48:49;16.50;61.50
48648;DHT22;34437;-33.956;151.076;2023-05-07T03:51:12;16.60;61.50
48648;DHT22;34437;-33.956;151.076;2023-05-07T03:53:34;16.60;61.40
48648;DHT22;34437;-33.956;151.076;2023-05-07T03:55:56;16.70;61.30
48648;DHT22;34437;-33.956;151.076;2023-05-07T03:58:19;16.70;61.20
48648;DHT22;34437;-33.956;151.076;2023-05-07T04:00:42;16.70;61.20
48648;DHT22;34437;-33.956;151.076;2023-05-07T04:03:04;16.80;61.20
48648;DHT22;34437;-33.956;151.076;2023-05-07T04:05:27;16.80;61.20
48648;DHT22;34437;-33.956;151.076;2023-05-07T04:07:49;16.80;61.00
48648;DHT22;34437;-33.956;151.076;2023-05-07T04:10:12;16.80;60.80
48648;DHT22;34437;-33.956;151.076;2023-05-07T04:12:35;16.90;60.60
48648;DHT22;34437;-33.956;151.076;2023-05-07T04:14:57;16.90;60.30
48648;DHT22;34437;-33.956;151.076;2023-05-07T04:17:19;17.00;60.10
48648;DHT22;34437;-33.956;151.076;2023-05-07T04:19:42;17.10;60.00
48648;DHT22;34437;-33.956;151.076;2023-05-07T04:22:06;17.10;60.00
48648;DHT22;34437;-33.956;151.076;2023-05-07T04:24:31;17.10;59.90
48648;DHT22;34437;-33.956;151.076;2023-05-07T04:26:57;17.10;59.80
48648;DHT22;34437;-33.956;151.076;2023-05-07T04:29:20;17.20;59.80
48648;DHT22;34437;-33.956;151.076;2023-05-07T04:31:43;17.20;59.70
48648;DHT22;34437;-33.956;151.076;2023-05-07T04:34:08;17.30;59.60
48648;DHT22;34437;-33.956;151.076;2023-05-07T04:36:31;17.30;59.50
48648;DHT22;34437;-33.956;151.076;2023-05-07T04:38:55;17.40;59.40
48648;DHT22;34437;-33.956;151.076;2023-05-07T04:41:17;17.40;59.10
48648;DHT22;34437;-33.956;151.076;2023-05-07T04:43:40;17.50;58.90
48648;DHT22;34437;-33.956;151.076;2023-05-07T04:46:03;17.60;58.80
48648;DHT22;34437;-33.956;151.076;2023-05-07T04:48:26;17.60;58.50
48648;DHT22;34437;-33.956;151.076;2023-05-07T04:50:50;17.60;58.30
48648;DHT22;34437;-33.956;151.076;2023-05-07T04:53:12;17.60;58.00
48648;DHT22;34437;-33.956;151.076;2023-05-07T04:55:35;17.60;58.10
48648;DHT22;34437;-33.956;151.076;2023-05-07T04:57:58;17.70;58.00
48648;DHT22;34437;-33.956;151.076;2023-05-07T05:00:22;17.70;57.80
48648;DHT22;34437;-33.956;151.076;2023-05-07T05:02:45;17.80;57.50
48648;DHT22;34437;-33.956;151.076;2023-05-07T05:05:07;17.80;56.40
48648;DHT22;34437;-33.956;151.076;2023-05-07T05:07:30;17.80;56.50
48648;DHT22;34437;-33.956;151.076;2023-05-07T05:09:53;17.80;56.70
48648;DHT22;34437;-33.956;151.076;2023-05-07T05:12:15;17.90;56.90
48648;DHT22;34437;-33.956;151.076;2023-05-07T05:14:38;17.90;56.70
48648;DHT22;34437;-33.956;151.076;2023-05-07T05:17:00;17.80;56.80
48648;DHT22;34437;-33.956;151.076;2023-05-07T05:19:23;17.70;57.00
48648;DHT22;34437;-33.956;151.076;2023-05-07T05:21:45;17.70;57.20
48648;DHT22;34437;-33.956;151.076;2023-05-07T05:24:08;17.60;57.30
48648;DHT22;34437;-33.956;151.076;2023-05-07T05:26:30;17.50;58.00
48648;DHT22;34437;-33.956;151.076;2023-05-07T05:28:53;17.50;57.40
48648;DHT22;34437;-33.956;151.076;2023-05-07T05:31:16;17.50;57.30
48648;DHT22;34437;-33.956;151.076;2023-05-07T05:33:39;17.50;57.40
48648;DHT22;34437;-33.956;151.076;2023-05-07T05:36:01;17.40;57.40
48648;DHT22;34437;-33.956;151.076;2023-05-07T05:38:24;17.40;57.40
48648;DHT22;34437;-33.956;151.076;2023-05-07T05:40:47;17.40;57.40
48648;DHT22;34437;-33.956;151.076;2023-05-07T05:43:10;17.30;57.50
48648;DHT22;34437;-33.956;151.076;2023-05-07T05:45:32;17.30;57.40
48648;DHT22;34437;-33.956;151.076;2023-05-07T05:47:56;17.30;57.50
48648;DHT22;34437;-33.956;151.076;2023-05-07T05:50:19;17.20;57.30
48648;DHT22;34437;-33.956;151.076;2023-05-07T05:52:41;17.20;57.30
48648;DHT22;34437;-33.956;151.076;2023-05-07T05:55:04;17.20;56.90
48648;DHT22;34437;-33.956;151.076;2023-05-07T05:57:26;17.20;57.10
48648;DHT22;34437;-33.956;151.076;2023-05-07T05:59:49;17.10;57.10
48648;DHT22;34437;-33.956;151.076;2023-05-07T06:02:11;17.10;56.90
48648;DHT22;34437;-33.956;151.076;2023-05-07T06:04:34;17.20;57.00
48648;DHT22;34437;-33.956;151.076;2023-05-07T06:06:56;17.20;57.10
48648;DHT22;34437;-33.956;151.076;2023-05-07T06:09:18;17.20;57.10
48648;DHT22;34437;-33.956;151.076;2023-05-07T06:11:41;17.10;57.10
48648;DHT22;34437;-33.956;151.076;2023-05-07T06:14:04;17.20;57.10
48648;DHT22;34437;-33.956;151.076;2023-05-07T06:16:26;17.20;57.00
48648;DHT22;34437;-33.956;151.076;2023-05-07T06:18:49;17.20;57.00
48648;DHT22;34437;-33.956;151.076;2023-05-07T06:21:13;17.20;56.80
48648;DHT22;34437;-33.956;151.076;2023-05-07T06:23:35;17.20;56.60
48648;DHT22;34437;-33.956;151.076;2023-05-07T06:25:58;17.30;56.60
48648;DHT22;34437;-33.956;151.076;2023-05-07T06:28:20;17.30;56.50
48648;DHT22;34437;-33.956;151.076;2023-05-07T06:30:42;17.30;56.40
48648;DHT22;34437;-33.956;151.076;2023-05-07T06:33:05;17.40;56.50
48648;DHT22;34437;-33.956;151.076;2023-05-07T06:35:27;17.40;56.40
48648;DHT22;34437;-33.956;151.076;2023-05-07T06:37:50;17.30;56.40
48648;DHT22;34437;-33.956;151.076;2023-05-07T06:40:12;17.40;56.20
48648;DHT22;34437;-33.956;151.076;2023-05-07T06:42:36;17.70;55.60
48648;DHT22;34437;-33.956;151.076;2023-05-07T06:44:59;18.60;53.30
48648;DHT22;34437;-33.956;151.076;2023-05-07T06:47:21;19.40;51.00
48648;DHT22;34437;-33.956;151.076;2023-05-07T06:49:43;20.00;49.60
48648;DHT22;34437;-33.956;151.076;2023-05-07T06:52:06;20.30;48.70
48648;DHT22;34437;-33.956;151.076;2023-05-07T06:54:29;20.00;49.00
48648;DHT22;34437;-33.956;151.076;2023-05-07T06:56:52;19.30;50.40
48648;DHT22;34437;-33.956;151.076;2023-05-07T06:59:14;18.70;51.70
48648;DHT22;34437;-33.956;151.076;2023-05-07T07:01:37;18.30;52.90
48648;DHT22;34437;-33.956;151.076;2023-05-07T07:03:59;18.00;53.50
48648;DHT22;34437;-33.956;151.076;2023-05-07T07:06:22;17.80;54.10
48648;DHT22;34437;-33.956;151.076;2023-05-07T07:08:44;17.60;54.60
48648;DHT22;34437;-33.956;151.076;2023-05-07T07:11:09;17.40;54.90
48648;DHT22;34437;-33.956;151.076;2023-05-07T07:13:32;17.30;55.20
48648;DHT22;34437;-33.956;151.076;2023-05-07T07:15:54;17.30;56.10
48648;DHT22;34437;-33.956;151.076;2023-05-07T07:18:17;17.20;55.60
48648;DHT22;34437;-33.956;151.076;2023-05-07T07:20:39;17.10;55.70
48648;DHT22;34437;-33.956;151.076;2023-05-07T07:23:01;17.00;55.70
48648;DHT22;34437;-33.956;151.076;2023-05-07T07:25:24;17.00;56.10
48648;DHT22;34437;-33.956;151.076;2023-05-07T07:27:46;16.90;56.00
48648;DHT22;34437;-33.956;151.076;2023-05-07T07:30:09;17.00;56.20
48648;DHT22;34437;-33.956;151.076;2023-05-07T07:32:31;16.90;56.20
48648;DHT22;34437;-33.956;151.076;2023-05-07T07:34:55;16.90;56.20
48648;DHT22;34437;-33.956;151.076;2023-05-07T07:37:17;16.80;56.20
48648;DHT22;34437;-33.956;151.076;2023-05-07T07:39:39;16.80;56.20
48648;DHT22;34437;-33.956;151.076;2023-05-07T07:42:02;16.80;56.40
48648;DHT22;34437;-33.956;151.076;2023-05-07T07:44:25;16.70;56.30
48648;DHT22;34437;-33.956;151.076;2023-05-07T07:46:48;16.70;56.40
48648;DHT22;34437;-33.956;151.076;2023-05-07T07:49:10;16.70;56.30
48648;DHT22;34437;-33.956;151.076;2023-05-07T07:51:33;16.60;56.30
48648;DHT22;34437;-33.956;151.076;2023-05-07T07:53:55;16.60;56.40
48648;DHT22;34437;-33.956;151.076;2023-05-07T07:56:19;16.60;56.50
48648;DHT22;34437;-33.956;151.076;2023-05-07T07:58:42;16.60;56.60
48648;DHT22;34437;-33.956;151.076;2023-05-07T08:01:04;16.60;56.60
48648;DHT22;34437;-33.956;151.076;2023-05-07T08:03:27;16.50;56.60
48648;DHT22;34437;-33.956;151.076;2023-05-07T08:05:49;16.50;56.60
48648;DHT22;34437;-33.956;151.076;2023-05-07T08:08:12;16.50;56.70
48648;DHT22;34437;-33.956;151.076;2023-05-07T08:10:35;16.50;56.70
48648;DHT22;34437;-33.956;151.076;2023-05-07T08:13:00;16.50;56.70
48648;DHT22;34437;-33.956;151.076;2023-05-07T08:15:23;16.50;56.90
48648;DHT22;34437;-33.956;151.076;2023-05-07T08:17:45;16.40;56.90
48648;DHT22;34437;-33.956;151.076;2023-05-07T08:20:08;16.40;57.00
48648;DHT22;34437;-33.956;151.076;2023-05-07T08:22:30;16.40;56.90
48648;DHT22;34437;-33.956;151.076;2023-05-07T08:24:53;16.40;56.80
48648;DHT22;34437;-33.956;151.076;2023-05-07T08:27:15;16.30;57.00
48648;DHT22;34437;-33.956;151.076;2023-05-07T08:29:38;16.40;57.10
48648;DHT22;34437;-33.956;151.076;2023-05-07T08:32:01;16.30;57.10
48648;DHT22;34437;-33.956;151.076;2023-05-07T08:34:23;16.30;57.00
48648;DHT22;34437;-33.956;151.076;2023-05-07T08:36:46;16.30;57.20
48648;DHT22;34437;-33.956;151.076;2023-05-07T08:39:10;16.30;57.20
48648;DHT22;34437;-33.956;151.076;2023-05-07T08:41:32;16.30;57.20
48648;DHT22;34437;-33.956;151.076;2023-05-07T08:43:57;16.30;57.30
48648;DHT22;34437;-33.956;151.076;2023-05-07T08:46:22;16.20;57.20
48648;DHT22;34437;-33.956;151.076;2023-05-07T08:48:44;16.20;57.20
48648;DHT22;34437;-33.956;151.076;2023-05-07T08:51:08;16.20;57.30
48648;DHT22;34437;-33.956;151.076;2023-05-07T08:53:31;16.20;57.10
48648;DHT22;34437;-33.956;151.076;2023-05-07T08:55:54;16.20;57.00
48648;DHT22;34437;-33.956;151.076;2023-05-07T08:58:17;16.20;57.30
48648;DHT22;34437;-33.956;151.076;2023-05-07T09:00:40;16.20;57.30
48648;DHT22;34437;-33.956;151.076;2023-05-07T09:03:04;16.10;57.30
48648;DHT22;34437;-33.956;151.076;2023-05-07T09:05:26;16.10;57.00
48648;DHT22;34437;-33.956;151.076;2023-05-07T09:07:48;16.10;57.00
48648;DHT22;34437;-33.956;151.076;2023-05-07T09:10:12;16.10;57.00
48648;DHT22;34437;-33.956;151.076;2023-05-07T09:12:34;16.10;56.90
48648;DHT22;34437;-33.956;151.076;2023-05-07T09:14:58;16.10;57.30
48648;DHT22;34437;-33.956;151.076;2023-05-07T09:17:22;16.10;57.40
48648;DHT22;34437;-33.956;151.076;2023-05-07T09:19:47;16.10;57.20
48648;DHT22;34437;-33.956;151.076;2023-05-07T09:22:10;16.00;57.20
48648;DHT22;34437;-33.956;151.076;2023-05-07T09:24:32;16.00;57.20
48648;DHT22;34437;-33.956;151.076;2023-05-07T09:26:59;16.00;57.30
48648;DHT22;34437;-33.956;151.076;2023-05-07T09:29:23;16.00;57.20
48648;DHT22;34437;-33.956;151.076;2023-05-07T09:31:45;16.00;57.20
48648;DHT22;34437;-33.956;151.076;2023-05-07T09:34:08;16.00;57.20
48648;DHT22;34437;-33.956;151.076;2023-05-07T09:36:32;16.00;57.20
48648;DHT22;34437;-33.956;151.076;2023-05-07T09:38:54;15.90;57.30
48648;DHT22;34437;-33.956;151.076;2023-05-07T09:41:18;15.90;57.20
48648;DHT22;34437;-33.956;151.076;2023-05-07T09:43:41;15.90;57.40
48648;DHT22;34437;-33.956;151.076;2023-05-07T09:46:14;15.90;57.30
48648;DHT22;34437;-33.956;151.076;2023-05-07T09:48:38;15.90;57.20
48648;DHT22;34437;-33.956;151.076;2023-05-07T09:51:51;15.90;57.60
48648;DHT22;34437;-33.956;151.076;2023-05-07T09:53:48;15.90;57.30
48648;DHT22;34437;-33.956;151.076;2023-05-07T09:56:13;15.90;57.30
48648;DHT22;34437;-33.956;151.076;2023-05-07T09:58:40;15.80;57.10
48648;DHT22;34437;-33.956;151.076;2023-05-07T10:01:04;15.80;57.30
48648;DHT22;34437;-33.956;151.076;2023-05-07T10:03:28;15.80;57.20
48648;DHT22;34437;-33.956;151.076;2023-05-07T10:05:54;15.80;57.30
48648;DHT22;34437;-33.956;151.076;2023-05-07T10:08:17;15.80;57.40
48648;DHT22;34437;-33.956;151.076;2023-05-07T10:10:41;15.80;57.20
48648;DHT22;34437;-33.956;151.076;2023-05-07T10:13:04;15.80;57.30
48648;DHT22;34437;-33.956;151.076;2023-05-07T10:15:32;15.80;57.40
48648;DHT22;34437;-33.956;151.076;2023-05-07T10:17:55;15.70;57.20
48648;DHT22;34437;-33.956;151.076;2023-05-07T10:20:17;15.70;57.20
48648;DHT22;34437;-33.956;151.076;2023-05-07T10:22:45;15.80;57.40
48648;DHT22;34437;-33.956;151.076;2023-05-07T10:25:16;15.70;57.40
48648;DHT22;34437;-33.956;151.076;2023-05-07T10:27:40;15.70;57.30
48648;DHT22;34437;-33.956;151.076;2023-05-07T10:30:24;15.70;57.30
48648;DHT22;34437;-33.956;151.076;2023-05-07T10:32:50;15.70;57.40
48648;DHT22;34437;-33.956;151.076;2023-05-07T10:35:24;15.70;57.60
48648;DHT22;34437;-33.956;151.076;2023-05-07T10:37:48;15.70;57.50
48648;DHT22;34437;-33.956;151.076;2023-05-07T10:40:12;15.60;57.30
48648;DHT22;34437;-33.956;151.076;2023-05-07T10:42:34;15.60;57.40
48648;DHT22;34437;-33.956;151.076;2023-05-07T10:44:57;15.60;57.30
48648;DHT22;34437;-33.956;151.076;2023-05-07T10:47:19;15.60;57.40
48648;DHT22;34437;-33.956;151.076;2023-05-07T10:52:18;15.60;57.50
48648;DHT22;34437;-33.956;151.076;2023-05-07T10:54:41;15.60;57.50
48648;DHT22;34437;-33.956;151.076;2023-05-07T10:59:51;15.50;57.10
48648;DHT22;34437;-33.956;151.076;2023-05-07T11:02:15;15.60;57.30
48648;DHT22;34437;-33.956;151.076;2023-05-07T11:04:38;15.60;57.40
48648;DHT22;34437;-33.956;151.076;2023-05-07T11:12:46;15.60;57.40
48648;DHT22;34437;-33.956;151.076;2023-05-07T11:15:00;15.60;57.60
48648;DHT22;34437;-33.956;151.076;2023-05-07T11:17:22;15.60;57.70
48648;DHT22;34437;-33.956;151.076;2023-05-07T11:19:52;15.60;57.70
48648;DHT22;34437;-33.956;151.076;2023-05-07T11:22:38;15.60;57.90
48648;DHT22;34437;-33.956;151.076;2023-05-07T11:25:05;15.60;57.90
48648;DHT22;34437;-33.956;151.076;2023-05-07T11:27:28;15.60;58.30
48648;DHT22;34437;-33.956;151.076;2023-05-07T11:29:51;15.60;57.90
48648;DHT22;34437;-33.956;151.076;2023-05-07T11:32:13;15.60;58.00
48648;DHT22;34437;-33.956;151.076;2023-05-07T11:34:36;15.60;58.30
48648;DHT22;34437;-33.956;151.076;2023-05-07T11:36:59;15.60;58.30
48648;DHT22;34437;-33.956;151.076;2023-05-07T11:39:26;15.60;58.30
48648;DHT22;34437;-33.956;151.076;2023-05-07T11:41:48;15.60;58.20
48648;DHT22;34437;-33.956;151.076;2023-05-07T11:44:11;15.50;58.30
48648;DHT22;34437;-33.956;151.076;2023-05-07T11:46:34;15.50;58.20
48648;DHT22;34437;-33.956;151.076;2023-05-07T11:48:57;15.50;58.30
48648;DHT22;34437;-33.956;151.076;2023-05-07T11:51:21;15.60;58.50
48648;DHT22;34437;-33.956;151.076;2023-05-07T11:53:44;15.60;58.70
48648;DHT22;34437;-33.956;151.076;2023-05-07T11:56:16;15.50;58.80
48648;DHT22;34437;-33.956;151.076;2023-05-07T11:58:39;15.50;58.60
48648;DHT22;34437;-33.956;151.076;2023-05-07T12:01:02;15.50;58.50
48648;DHT22;34437;-33.956;151.076;2023-05-07T12:03:24;15.50;58.50
48648;DHT22;34437;-33.956;151.076;2023-05-07T12:05:47;15.50;58.70
48648;DHT22;34437;-33.956;151.076;2023-05-07T12:08:17;15.50;58.70
48648;DHT22;34437;-33.956;151.076;2023-05-07T12:10:43;15.50;58.70
48648;DHT22;34437;-33.956;151.076;2023-05-07T12:13:15;15.50;58.60
48648;DHT22;34437;-33.956;151.076;2023-05-07T12:15:37;15.40;58.50
48648;DHT22;34437;-33.956;151.076;2023-05-07T12:18:00;15.40;58.40
48648;DHT22;34437;-33.956;151.076;2023-05-07T12:20:23;15.50;59.20
48648;DHT22;34437;-33.956;151.076;2023-05-07T12:22:46;15.40;59.30
48648;DHT22;34437;-33.956;151.076;2023-05-07T12:25:09;15.40;59.50
48648;DHT22;34437;-33.956;151.076;2023-05-07T12:27:32;15.50;59.60
48648;DHT22;34437;-33.956;151.076;2023-05-07T12:29:56;15.50;59.90
48648;DHT22;34437;-33.956;151.076;2023-05-07T12:32:19;15.50;60.30
48648;DHT22;34437;-33.956;151.076;2023-05-07T12:34:43;15.50;60.70
48648;DHT22;34437;-33.956;151.076;2023-05-07T12:37:06;15.50;61.10
48648;DHT22;34437;-33.956;151.076;2023-05-07T12:39:35;15.50;61.00
48648;DHT22;34437;-33.956;151.076;2023-05-07T12:41:58;15.50;60.90
48648;DHT22;34437;-33.956;151.076;2023-05-07T12:44:32;15.50;60.70
48648;DHT22;34437;-33.956;151.076;2023-05-07T12:46:55;15.50;60.40
48648;DHT22;34437;-33.956;151.076;2023-05-07T12:49:17;15.40;60.80
48648;DHT22;34437;-33.956;151.076;2023-05-07T12:51:40;15.40;60.30
48648;DHT22;34437;-33.956;151.076;2023-05-07T12:54:02;15.40;59.90
48648;DHT22;34437;-33.956;151.076;2023-05-07T12:56:25;15.40;60.00
48648;DHT22;34437;-33.956;151.076;2023-05-07T12:58:49;15.40;60.40
48648;DHT22;34437;-33.956;151.076;2023-05-07T13:01:11;15.40;60.30
48648;DHT22;34437;-33.956;151.076;2023-05-07T13:03:38;15.40;60.20
48648;DHT22;34437;-33.956;151.076;2023-05-07T13:06:08;15.40;60.30
48648;DHT22;34437;-33.956;151.076;2023-05-07T13:08:38;15.40;61.50
48648;DHT22;34437;-33.956;151.076;2023-05-07T13:11:03;15.40;61.90
48648;DHT22;34437;-33.956;151.076;2023-05-07T13:13:26;15.40;62.10
48648;DHT22;34437;-33.956;151.076;2023-05-07T13:15:48;15.40;61.70
48648;DHT22;34437;-33.956;151.076;2023-05-07T13:18:11;15.30;61.50
48648;DHT22;34437;-33.956;151.076;2023-05-07T13:20:33;15.30;61.50
48648;DHT22;34437;-33.956;151.076;2023-05-07T13:22:55;15.40;61.70
48648;DHT22;34437;-33.956;151.076;2023-05-07T13:25:18;15.30;61.20
48648;DHT22;34437;-33.956;151.076;2023-05-07T13:27:43;15.30;61.40
48648;DHT22;34437;-33.956;151.076;2023-05-07T13:30:06;15.30;61.30
48648;DHT22;34437;-33.956;151.076;2023-05-07T13:32:29;15.30;61.40
48648;DHT22;34437;-33.956;151.076;2023-05-07T13:34:52;15.30;61.10
48648;DHT22;34437;-33.956;151.076;2023-05-07T13:37:15;15.30;61.60
48648;DHT22;34437;-33.956;151.076;2023-05-07T13:39:37;15.30;61.60
48648;DHT22;34437;-33.956;151.076;2023-05-07T13:41:59;15.30;61.20
48648;DHT22;34437;-33.956;151.076;2023-05-07T13:44:22;15.30;61.20
48648;DHT22;34437;-33.956;151.076;2023-05-07T13:46:44;15.30;61.10
48648;DHT22;34437;-33.956;151.076;2023-05-07T13:49:07;15.30;61.00
48648;DHT22;34437;-33.956;151.076;2023-05-07T13:51:29;15.30;61.00
48648;DHT22;34437;-33.956;151.076;2023-05-07T13:53:52;15.30;60.90
48648;DHT22;34437;-33.956;151.076;2023-05-07T13:56:15;15.20;61.20
48648;DHT22;34437;-33.956;151.076;2023-05-07T13:58:38;15.20;60.90
48648;DHT22;34437;-33.956;151.076;2023-05-07T14:01:00;15.20;60.80
48648;DHT22;34437;-33.956;151.076;2023-05-07T14:03:22;15.20;61.20
48648;DHT22;34437;-33.956;151.076;2023-05-07T14:05:45;15.20;60.70
48648;DHT22;34437;-33.956;151.076;2023-05-07T14:08:07;15.20;60.60
48648;DHT22;34437;-33.956;151.076;2023-05-07T14:10:30;15.20;60.60
48648;DHT22;34437;-33.956;151.076;2023-05-07T14:12:53;15.20;60.70
48648;DHT22;34437;-33.956;151.076;2023-05-07T14:15:16;15.10;60.80
48648;DHT22;34437;-33.956;151.076;2023-05-07T14:17:38;15.10;60.80
48648;DHT22;34437;-33.956;151.076;2023-05-07T14:20:01;15.10;61.00
48648;DHT22;34437;-33.956;151.076;2023-05-07T14:22:23;15.10;60.80
48648;DHT22;34437;-33.956;151.076;2023-05-07T14:24:46;15.10;60.80
48648;DHT22;34437;-33.956;151.076;2023-05-07T14:27:08;15.10;61.00
48648;DHT22;34437;-33.956;151.076;2023-05-07T14:29:30;15.10;61.00
48648;DHT22;34437;-33.956;151.076;2023-05-07T14:31:53;15.10;60.90
48648;DHT22;34437;-33.956;151.076;2023-05-07T14:34:15;15.10;61.00